LIBP/PSR METAR and TAF weather

Enter ICAO airport designator
Station Type Date Time Source
LIBP METAR 2020/03/28 13:50 UTC NOAA

LIBP 281350Z 25004KT 200V290 9999 BKN025 13/09 Q1014


Station Type Date Time Source
LIBP Decoded METAR 2020/03/28 13:50 UTC NOAA

Pescara, Italy (LIBP) 42-26N 014-12E 11M
Mar 28, 2020 - 09:50 AM EDT / 2020.03.28 1350 UTC
Wind: from the WSW (250 degrees) at 5 MPH (4 KT) (direction variable):0
Visibility: greater than 7 mile(s):0
Sky conditions: mostly cloudy
Temperature: 55 F (13 C)
Dew Point: 48 F (9 C)
Relative Humidity: 76%
Pressure (altimeter): 29.94 in. Hg (1014 hPa)
ob: LIBP 281350Z 25004KT 200V290 9999 BKN025 13/09 Q1014
cycle: 14

Station Type Date Time Source
LIBP TAF 2020/03/28 12:21 UTC NOAA

TAF LIBP 281100Z 2812/2912 VRB05KT 7000 RA SCT020
BECMG 2813/2815 NSW

Example: see airport list